Time;durP1;ratioP1;P1;durP2;ratioP2;P2;SDS_P1;SDS_P2;PMS_P1;PMS_P2;Temp;Humidity;BMP_temperature;BMP_pressure;BME280_temperature;BME280_humidity;BME280_pressure;Samples;Min_cycle;Max_cycle;Signal;HPM_P1;HPM_P2
2024/03/18 00:02:01;;;;;;;13.85;7.90;;;;;;;;;;5115607;28;20336;-53
2024/03/18 00:04:27;;;;;;;12.00;8.15;;;;;;;;;;5115047;28;20436;-52
2024/03/18 00:06:52;;;;;;;14.27;9.57;;;;;;;;;;5115507;28;20398;-53
2024/03/18 00:09:17;;;;;;;13.65;8.77;;;;;;;;;;5115530;28;20043;-54
2024/03/18 00:11:42;;;;;;;13.70;8.82;;;;;;;;;;5115462;28;20427;-56
2024/03/18 00:14:07;;;;;;;13.10;8.75;;;;;;;;;;5115446;28;20336;-55
2024/03/18 00:16:33;;;;;;;12.52;9.00;;;;;;;;;;5115245;28;20019;-56
2024/03/18 00:18:58;;;;;;;13.05;9.10;;;;;;;;;;5115848;28;20015;-56
2024/03/18 00:21:23;;;;;;;16.33;10.63;;;;;;;;;;5115198;28;20329;-56
2024/03/18 00:23:48;;;;;;;11.60;8.80;;;;;;;;;;5115419;28;20332;-54
2024/03/18 00:26:13;;;;;;;12.32;9.57;;;;;;;;;;5115105;28;20019;-55
2024/03/18 00:28:39;;;;;;;14.55;10.10;;;;;;;;;;5115225;27;20031;-55
2024/03/18 00:31:05;;;;;;;11.65;9.15;;;;;;;;;;5115131;28;20012;-55
2024/03/18 00:33:30;;;;;;;14.32;10.63;;;;;;;;;;5115180;28;20015;-53
2024/03/18 00:35:56;;;;;;;15.77;10.85;;;;;;;;;;5115328;28;20062;-56
2024/03/18 00:38:21;;;;;;;12.13;9.82;;;;;;;;;;5114992;28;20084;-52
2024/03/18 00:40:46;;;;;;;15.15;11.30;;;;;;;;;;5115092;28;20086;-54
2024/03/18 00:43:12;;;;;;;14.38;11.25;;;;;;;;;;5114986;28;20441;-52
2024/03/18 00:45:37;;;;;;;14.38;10.88;;;;;;;;;;5114926;28;20417;-54
2024/03/18 00:48:04;;;;;;;15.98;11.45;;;;;;;;;;5114957;28;20105;-56
2024/03/18 00:50:29;;;;;;;14.95;10.70;;;;;;;;;;5113937;28;20065;-55
2024/03/18 00:52:54;;;;;;;14.00;10.60;;;;;;;;;;5114834;28;20020;-56
2024/03/18 00:55:20;;;;;;;13.13;10.02;;;;;;;;;;5114555;28;20019;-53
2024/03/18 00:57:45;;;;;;;16.52;11.68;;;;;;;;;;5114646;28;20016;-56
2024/03/18 01:00:11;;;;;;;17.42;10.80;;;;;;;;;;5114785;28;20425;-56
2024/03/18 01:02:37;;;;;;;15.65;10.65;;;;;;;;;;5114813;28;20026;-56
2024/03/18 01:05:04;;;;;;;15.57;11.02;;;;;;;;;;5114802;28;20016;-56
2024/03/18 01:07:29;;;;;;;17.15;11.30;;;;;;;;;;5114780;28;20474;-53
2024/03/18 01:09:54;;;;;;;15.88;11.40;;;;;;;;;;5114732;28;20020;-53
2024/03/18 01:12:19;;;;;;;13.57;10.07;;;;;;;;;;5114733;28;20084;-56
2024/03/18 01:14:45;;;;;;;15.30;10.23;;;;;;;;;;5114644;28;20027;-56
2024/03/18 01:17:10;;;;;;;12.07;9.30;;;;;;;;;;5118069;28;20440;-57
2024/03/18 01:19:37;;;;;;;16.25;10.32;;;;;;;;;;5119018;28;20015;-56
2024/03/18 01:22:02;;;;;;;13.50;10.27;;;;;;;;;;5118719;28;20460;-55
2024/03/18 01:24:28;;;;;;;13.13;10.18;;;;;;;;;;5118624;28;20047;-53
2024/03/18 01:26:53;;;;;;;14.40;10.25;;;;;;;;;;5117574;28;20122;-55
2024/03/18 01:29:19;;;;;;;14.30;9.98;;;;;;;;;;5118526;28;20481;-53
2024/03/18 01:31:44;;;;;;;13.38;9.73;;;;;;;;;;5118489;28;20498;-57
2024/03/18 01:34:10;;;;;;;15.43;10.35;;;;;;;;;;5118243;28;20048;-57
2024/03/18 01:36:35;;;;;;;12.82;9.70;;;;;;;;;;5118302;28;20100;-56
2024/03/18 01:39:00;;;;;;;12.38;9.13;;;;;;;;;;5118700;28;20149;-57
2024/03/18 01:41:25;;;;;;;13.93;10.00;;;;;;;;;;5118371;28;20058;-57
2024/03/18 01:43:51;;;;;;;12.93;10.15;;;;;;;;;;5118624;28;20136;-55
2024/03/18 01:46:16;;;;;;;13.68;9.88;;;;;;;;;;5118491;28;20008;-54
2024/03/18 01:48:42;;;;;;;13.02;9.70;;;;;;;;;;5118173;28;20023;-57
2024/03/18 01:51:07;;;;;;;12.40;8.88;;;;;;;;;;5118156;28;20041;-57
2024/03/18 01:53:33;;;;;;;12.80;9.60;;;;;;;;;;5117909;28;20354;-56
2024/03/18 01:55:59;;;;;;;12.00;8.85;;;;;;;;;;5118527;28;20024;-57
2024/03/18 01:58:24;;;;;;;13.40;9.73;;;;;;;;;;5118274;28;20016;-54
2024/03/18 02:00:49;;;;;;;15.02;9.80;;;;;;;;;;5118234;28;20089;-56
2024/03/18 02:03:15;;;;;;;13.50;9.55;;;;;;;;;;5117902;27;20019;-54
2024/03/18 02:05:42;;;;;;;11.90;8.88;;;;;;;;;;5117913;28;20104;-54
2024/03/18 02:08:07;;;;;;;12.77;8.75;;;;;;;;;;5117800;28;20027;-56
2024/03/18 02:10:32;;;;;;;11.05;8.57;;;;;;;;;;5117771;28;20041;-56
2024/03/18 02:13:00;;;;;;;12.50;9.27;;;;;;;;;;5117722;28;20355;-53
2024/03/18 02:15:25;;;;;;;12.10;8.50;;;;;;;;;;5117470;28;20051;-57
2024/03/18 02:17:53;;;;;;;11.07;8.55;;;;;;;;;;5117535;28;20043;-57
2024/03/18 02:20:18;;;;;;;11.15;7.82;;;;;;;;;;5117357;28;20023;-57
2024/03/18 02:22:44;;;;;;;12.38;8.73;;;;;;;;;;5117874;28;20333;-56
2024/03/18 02:25:09;;;;;;;14.57;9.13;;;;;;;;;;5117602;28;20111;-56
2024/03/18 02:27:35;;;;;;;13.00;8.32;;;;;;;;;;5117012;28;20043;-53
2024/03/18 02:30:01;;;;;;;12.60;8.50;;;;;;;;;;5117385;28;20088;-56
2024/03/18 02:32:27;;;;;;;12.75;8.93;;;;;;;;;;5117263;28;20048;-57
2024/03/18 02:34:52;;;;;;;16.98;9.90;;;;;;;;;;5117248;28;20133;-56
2024/03/18 02:37:18;;;;;;;11.43;8.02;;;;;;;;;;5117336;28;20033;-56
2024/03/18 02:39:43;;;;;;;11.70;8.20;;;;;;;;;;5117239;28;20440;-57
2024/03/18 02:42:09;;;;;;;12.35;8.02;;;;;;;;;;5117416;28;20314;-57
2024/03/18 02:44:34;;;;;;;12.45;8.43;;;;;;;;;;5117123;28;20468;-56
2024/03/18 02:47:00;;;;;;;12.50;9.25;;;;;;;;;;5117374;28;20027;-56
2024/03/18 02:49:25;;;;;;;11.27;8.27;;;;;;;;;;5117287;28;20028;-56
2024/03/18 02:51:50;;;;;;;12.07;9.32;;;;;;;;;;5116082;28;20027;-56
2024/03/18 02:54:15;;;;;;;13.10;9.15;;;;;;;;;;5116769;28;20034;-56
2024/03/18 02:56:40;;;;;;;15.63;10.07;;;;;;;;;;5116975;28;20025;-56
2024/03/18 02:59:06;;;;;;;14.52;10.40;;;;;;;;;;5116861;28;20428;-56
2024/03/18 03:01:32;;;;;;;11.40;8.68;;;;;;;;;;5117342;22;20056;-86
2024/03/18 03:03:59;;;;;;;12.05;8.75;;;;;;;;;;5076830;28;20016;-87
2024/03/18 03:06:25;;;;;;;14.25;8.13;;;;;;;;;;5076610;28;20025;-87
2024/03/18 03:08:51;;;;;;;11.70;8.70;;;;;;;;;;5076744;28;20012;-87
2024/03/18 03:11:17;;;;;;;12.07;8.70;;;;;;;;;;5076965;28;20017;-87
2024/03/18 03:13:43;;;;;;;12.48;8.65;;;;;;;;;;5058800;28;20038;-87
2024/03/18 03:16:10;;;;;;;13.98;8.70;;;;;;;;;;5076799;28;20055;-87
2024/03/18 03:18:36;;;;;;;13.80;8.75;;;;;;;;;;5076690;28;20027;-87
2024/03/18 03:21:06;;;;;;;10.40;8.00;;;;;;;;;;5076683;28;20166;-86
2024/03/18 03:23:36;;;;;;;12.60;8.52;;;;;;;;;;5059033;28;20081;-87
2024/03/18 03:26:02;;;;;;;12.13;8.27;;;;;;;;;;5058891;28;20445;-87
2024/03/18 03:28:28;;;;;;;13.13;8.90;;;;;;;;;;5042288;28;20032;-88
2024/03/18 03:31:08;;;;;;;11.68;8.00;;;;;;;;;;5060030;28;20024;-87
2024/03/18 03:33:33;;;;;;;13.13;9.25;;;;;;;;;;5058410;28;20368;-86
2024/03/18 03:35:59;;;;;;;12.48;8.30;;;;;;;;;;5058564;28;20028;-86
2024/03/18 03:38:25;;;;;;;13.25;8.43;;;;;;;;;;5057787;28;20017;-86
2024/03/18 03:40:53;;;;;;;11.38;7.25;;;;;;;;;;5058736;28;20031;-87
2024/03/18 03:43:19;;;;;;;11.27;7.75;;;;;;;;;;5075686;28;20020;-86
2024/03/18 03:45:49;;;;;;;13.23;8.55;;;;;;;;;;5076049;28;20021;-86
2024/03/18 03:48:15;;;;;;;12.77;8.80;;;;;;;;;;5058571;28;20115;-86
2024/03/18 03:50:40;;;;;;;13.43;9.52;;;;;;;;;;5058701;28;20048;-87
2024/03/18 03:53:05;;;;;;;10.95;8.27;;;;;;;;;;5058475;28;20056;-86
2024/03/18 03:55:30;;;;;;;12.65;7.72;;;;;;;;;;5075598;28;20145;-86
2024/03/18 03:58:00;;;;;;;11.60;8.85;;;;;;;;;;5075807;28;20017;-86
2024/03/18 04:00:25;;;;;;;12.93;8.73;;;;;;;;;;5075781;28;20153;-86
2024/03/18 04:02:52;;;;;;;14.88;8.93;;;;;;;;;;5071942;22;20087;-56
2024/03/18 04:05:18;;;;;;;10.77;8.50;;;;;;;;;;5054936;28;20099;-58
2024/03/18 04:07:43;;;;;;;10.40;7.68;;;;;;;;;;5055201;28;20074;-58
2024/03/18 04:10:09;;;;;;;12.38;7.70;;;;;;;;;;5055663;28;20469;-58
2024/03/18 04:12:35;;;;;;;12.60;8.68;;;;;;;;;;5055147;28;20096;-58
2024/03/18 04:15:01;;;;;;;10.15;8.32;;;;;;;;;;5055292;28;20112;-58
2024/03/18 04:17:27;;;;;;;12.05;8.32;;;;;;;;;;5055040;28;20025;-58
2024/03/18 04:19:54;;;;;;;13.68;8.73;;;;;;;;;;5054909;28;20025;-58
2024/03/18 04:22:19;;;;;;;12.05;8.60;;;;;;;;;;5054916;28;20041;-57
2024/03/18 04:24:45;;;;;;;10.50;8.68;;;;;;;;;;5055022;28;20031;-57
2024/03/18 04:27:10;;;;;;;14.60;9.95;;;;;;;;;;5054911;28;20052;-58
2024/03/18 04:29:35;;;;;;;12.23;9.20;;;;;;;;;;5055034;28;20025;-58
2024/03/18 04:32:05;;;;;;;11.45;9.00;;;;;;;;;;5055167;28;20096;-58
2024/03/18 04:34:32;;;;;;;12.82;9.60;;;;;;;;;;5055253;28;20021;-58
2024/03/18 04:36:57;;;;;;;13.35;9.30;;;;;;;;;;5055336;28;20032;-58
2024/03/18 04:39:22;;;;;;;13.43;9.02;;;;;;;;;;5055057;28;20354;-58
2024/03/18 04:41:47;;;;;;;12.32;9.25;;;;;;;;;;5054317;28;20096;-58
2024/03/18 04:44:13;;;;;;;13.10;8.75;;;;;;;;;;5055196;28;20013;-58
2024/03/18 04:46:38;;;;;;;13.20;9.73;;;;;;;;;;5055129;28;20013;-58
2024/03/18 04:49:03;;;;;;;13.18;9.27;;;;;;;;;;5055534;28;20021;-58
2024/03/18 04:51:28;;;;;;;12.68;9.65;;;;;;;;;;5053842;28;20449;-58
2024/03/18 04:53:54;;;;;;;14.63;9.45;;;;;;;;;;5055198;28;20457;-57
2024/03/18 04:56:19;;;;;;;13.98;10.38;;;;;;;;;;5055426;28;20024;-58
2024/03/18 04:58:44;;;;;;;13.32;10.45;;;;;;;;;;5055142;28;20053;-58
2024/03/18 05:01:09;;;;;;;12.50;9.70;;;;;;;;;;5055400;28;20123;-55
2024/03/18 05:03:36;;;;;;;12.60;9.55;;;;;;;;;;5055099;28;20382;-57
2024/03/18 05:06:01;;;;;;;11.65;9.45;;;;;;;;;;5055072;28;20045;-57
2024/03/18 05:08:26;;;;;;;11.18;9.40;;;;;;;;;;5055103;28;20032;-55
2024/03/18 05:10:52;;;;;;;11.02;8.50;;;;;;;;;;5054970;28;20028;-57
2024/03/18 05:13:17;;;;;;;11.65;8.52;;;;;;;;;;5055105;28;20476;-57
2024/03/18 05:15:42;;;;;;;13.45;9.13;;;;;;;;;;5055080;28;20017;-56
2024/03/18 05:18:07;;;;;;;13.07;9.27;;;;;;;;;;5055022;28;20350;-58
2024/03/18 05:20:33;;;;;;;12.50;9.88;;;;;;;;;;5054825;28;20056;-57
2024/03/18 05:23:00;;;;;;;14.73;9.75;;;;;;;;;;5055105;28;20041;-58
2024/03/18 05:25:25;;;;;;;15.25;9.55;;;;;;;;;;5055063;28;20025;-57
2024/03/18 05:27:50;;;;;;;12.80;9.70;;;;;;;;;;5054964;28;20115;-57
2024/03/18 05:30:16;;;;;;;15.10;10.95;;;;;;;;;;5054751;28;20063;-58
2024/03/18 05:32:41;;;;;;;12.35;9.88;;;;;;;;;;5054623;28;20035;-58
2024/03/18 05:35:07;;;;;;;15.15;11.18;;;;;;;;;;5054744;28;20100;-58
2024/03/18 05:37:32;;;;;;;14.52;10.05;;;;;;;;;;5055090;28;20045;-57
2024/03/18 05:39:57;;;;;;;11.57;9.00;;;;;;;;;;5053850;28;20028;-57
2024/03/18 05:42:22;;;;;;;14.60;11.15;;;;;;;;;;5054918;28;20017;-55
2024/03/18 05:44:49;;;;;;;14.63;11.45;;;;;;;;;;5053908;28;20056;-55
2024/03/18 05:47:16;;;;;;;15.45;10.75;;;;;;;;;;5053776;28;20025;-58
2024/03/18 05:49:41;;;;;;;13.45;10.40;;;;;;;;;;5055434;28;20082;-58
2024/03/18 05:52:07;;;;;;;13.75;10.70;;;;;;;;;;5054592;28;20025;-58
2024/03/18 05:54:32;;;;;;;12.48;9.50;;;;;;;;;;5054824;28;20036;-54
2024/03/18 05:56:57;;;;;;;15.20;10.15;;;;;;;;;;5054504;28;20032;-57
2024/03/18 05:59:22;;;;;;;14.63;10.60;;;;;;;;;;5054514;28;20021;-55
2024/03/18 06:01:48;;;;;;;14.15;9.73;;;;;;;;;;5055289;28;20052;-57
2024/03/18 06:04:13;;;;;;;19.85;13.00;;;;;;;;;;5058472;28;20438;-58
2024/03/18 06:06:39;;;;;;;13.18;10.43;;;;;;;;;;5057356;28;20020;-58
2024/03/18 06:09:04;;;;;;;15.10;10.23;;;;;;;;;;5058300;28;20453;-58
2024/03/18 06:11:29;;;;;;;12.65;9.90;;;;;;;;;;5058111;28;20029;-57
2024/03/18 06:13:57;;;;;;;16.30;10.48;;;;;;;;;;5057827;28;20342;-56
2024/03/18 06:16:24;;;;;;;17.77;10.27;;;;;;;;;;5057504;28;20036;-56
2024/03/18 06:18:49;;;;;;;15.40;10.93;;;;;;;;;;5057656;28;20104;-57
2024/03/18 06:21:17;;;;;;;13.60;10.48;;;;;;;;;;5057346;28;20041;-58
2024/03/18 06:23:51;;;;;;;12.57;9.85;;;;;;;;;;5057396;28;20025;-57
2024/03/18 06:26:19;;;;;;;11.80;9.77;;;;;;;;;;5057657;28;20026;-58
2024/03/18 06:28:46;;;;;;;14.18;10.27;;;;;;;;;;5057343;28;20413;-57
2024/03/18 06:31:11;;;;;;;13.10;9.80;;;;;;;;;;5057278;28;20163;-58
2024/03/18 06:33:37;;;;;;;12.95;9.70;;;;;;;;;;5057394;28;20083;-53
2024/03/18 06:36:08;;;;;;;13.48;9.80;;;;;;;;;;5057230;28;20025;-55
2024/03/18 06:38:34;;;;;;;15.77;10.07;;;;;;;;;;5057340;28;20102;-55
2024/03/18 06:40:59;;;;;;;16.67;10.93;;;;;;;;;;5057784;28;20048;-57
2024/03/18 06:43:24;;;;;;;14.02;9.88;;;;;;;;;;5056204;28;20021;-54
2024/03/18 06:45:50;;;;;;;12.60;9.73;;;;;;;;;;5057844;28;20028;-54
2024/03/18 06:48:15;;;;;;;14.10;10.02;;;;;;;;;;5057091;28;20114;-53
2024/03/18 06:50:40;;;;;;;15.98;11.10;;;;;;;;;;5057005;28;20025;-58
2024/03/18 06:53:06;;;;;;;14.32;10.57;;;;;;;;;;5056871;28;20035;-57
2024/03/18 06:55:32;;;;;;;13.52;9.70;;;;;;;;;;5057056;28;20345;-57
2024/03/18 06:57:58;;;;;;;15.82;10.70;;;;;;;;;;5056605;28;20504;-56
2024/03/18 07:00:23;;;;;;;15.50;10.50;;;;;;;;;;5056614;28;20020;-58
2024/03/18 07:02:49;;;;;;;14.70;10.23;;;;;;;;;;5055752;28;20033;-57
2024/03/18 07:05:15;;;;;;;13.38;10.40;;;;;;;;;;5056661;28;20348;-58
2024/03/18 07:07:41;;;;;;;15.18;11.48;;;;;;;;;;5056614;28;20078;-57
2024/03/18 07:10:07;;;;;;;15.68;11.02;;;;;;;;;;5056837;28;20021;-57
2024/03/18 07:12:32;;;;;;;13.82;10.27;;;;;;;;;;5056518;28;20029;-58
2024/03/18 07:14:57;;;;;;;13.45;10.40;;;;;;;;;;5056271;28;20040;-56
2024/03/18 07:17:22;;;;;;;15.73;11.38;;;;;;;;;;5056413;28;20044;-57
2024/03/18 07:19:48;;;;;;;13.63;10.90;;;;;;;;;;5056360;28;20357;-58
2024/03/18 07:22:14;;;;;;;16.85;11.02;;;;;;;;;;5056250;28;20021;-57
2024/03/18 07:24:40;;;;;;;15.20;10.60;;;;;;;;;;5056151;28;20025;-57
2024/03/18 07:27:05;;;;;;;13.95;10.95;;;;;;;;;;5056439;28;20104;-57
2024/03/18 07:29:30;;;;;;;14.25;11.73;;;;;;;;;;5056199;28;20108;-57
2024/03/18 07:31:56;;;;;;;15.63;11.52;;;;;;;;;;5056069;28;20107;-58
2024/03/18 07:34:24;;;;;;;15.82;11.55;;;;;;;;;;5056024;28;20099;-57
2024/03/18 07:36:50;;;;;;;16.15;11.93;;;;;;;;;;5056042;28;20045;-58
2024/03/18 07:39:16;;;;;;;17.00;12.00;;;;;;;;;;5056776;28;20075;-58
2024/03/18 07:41:43;;;;;;;15.15;11.85;;;;;;;;;;5055957;28;20052;-55
2024/03/18 07:44:10;;;;;;;13.85;11.07;;;;;;;;;;5055776;28;20404;-57
2024/03/18 07:46:37;;;;;;;16.33;11.38;;;;;;;;;;5055521;28;20029;-58
2024/03/18 07:49:05;;;;;;;15.52;12.07;;;;;;;;;;5055649;28;20414;-57
2024/03/18 07:51:30;;;;;;;15.32;10.13;;;;;;;;;;5056089;28;20024;-56
2024/03/18 07:53:56;;;;;;;14.38;11.07;;;;;;;;;;5055562;28;20124;-55
2024/03/18 07:56:22;;;;;;;14.48;10.93;;;;;;;;;;5056791;28;20013;-54
2024/03/18 07:58:48;;;;;;;16.42;10.65;;;;;;;;;;5054263;28;20428;-56
2024/03/18 08:01:13;;;;;;;13.73;10.60;;;;;;;;;;5056266;28;20104;-54
2024/03/18 08:03:39;;;;;;;14.05;11.57;;;;;;;;;;5056943;28;20028;-56
2024/03/18 08:06:09;;;;;;;17.75;12.02;;;;;;;;;;5055786;28;20104;-57
2024/03/18 08:08:34;;;;;;;15.30;12.57;;;;;;;;;;5055030;28;20033;-56
2024/03/18 08:11:00;;;;;;;16.92;13.10;;;;;;;;;;5056218;28;20021;-57
2024/03/18 08:13:25;;;;;;;18.30;11.93;;;;;;;;;;5055444;28;20445;-58
2024/03/18 08:15:50;;;;;;;12.85;10.32;;;;;;;;;;5055323;28;20067;-56
2024/03/18 08:18:15;;;;;;;15.65;11.60;;;;;;;;;;5055445;28;20073;-58
2024/03/18 08:20:41;;;;;;;18.02;12.38;;;;;;;;;;5055279;28;20032;-58
2024/03/18 08:23:06;;;;;;;14.88;11.60;;;;;;;;;;5055120;28;20449;-58
2024/03/18 08:25:32;;;;;;;17.30;12.48;;;;;;;;;;5054826;28;20428;-58
2024/03/18 08:27:57;;;;;;;16.17;12.27;;;;;;;;;;5055104;28;20032;-58
2024/03/18 08:30:22;;;;;;;15.57;12.27;;;;;;;;;;5054901;28;20056;-58
2024/03/18 08:32:47;;;;;;;14.77;11.90;;;;;;;;;;5054911;28;20040;-59
2024/03/18 08:35:13;;;;;;;17.58;12.30;;;;;;;;;;5054306;28;20107;-58
2024/03/18 08:37:40;;;;;;;19.98;14.15;;;;;;;;;;5055298;28;20437;-58
2024/03/18 08:40:06;;;;;;;14.48;11.85;;;;;;;;;;5054822;28;20017;-58
2024/03/18 08:42:31;;;;;;;15.85;13.40;;;;;;;;;;5054819;28;20112;-58
2024/03/18 08:45:00;;;;;;;17.48;11.80;;;;;;;;;;5055131;28;20060;-57
2024/03/18 08:47:25;;;;;;;15.85;12.95;;;;;;;;;;5055146;28;20048;-58
2024/03/18 08:49:50;;;;;;;17.73;12.15;;;;;;;;;;5053830;28;20052;-58
2024/03/18 08:52:15;;;;;;;16.40;13.80;;;;;;;;;;5055041;28;20013;-58
2024/03/18 08:54:41;;;;;;;16.30;12.65;;;;;;;;;;5054659;28;20016;-57
2024/03/18 08:57:06;;;;;;;18.80;14.15;;;;;;;;;;5054017;28;20028;-58
2024/03/18 08:59:32;;;;;;;16.33;12.70;;;;;;;;;;5054630;28;20104;-58
2024/03/18 09:01:57;;;;;;;14.27;12.35;;;;;;;;;;5053912;28;20449;-58
2024/03/18 09:04:22;;;;;;;14.43;12.60;;;;;;;;;;5054545;28;20434;-58
2024/03/18 09:06:48;;;;;;;16.05;12.68;;;;;;;;;;5054762;28;20024;-58
2024/03/18 09:09:13;;;;;;;18.23;12.73;;;;;;;;;;5054703;28;20021;-57
2024/03/18 09:11:38;;;;;;;17.92;13.45;;;;;;;;;;5054559;28;20024;-54
2024/03/18 09:14:05;;;;;;;17.60;14.00;;;;;;;;;;5053626;28;20400;-60
2024/03/18 09:16:30;;;;;;;19.02;14.45;;;;;;;;;;5054741;28;20103;-58
2024/03/18 09:18:56;;;;;;;15.60;12.52;;;;;;;;;;5054622;28;20159;-59
2024/03/18 09:21:21;;;;;;;17.25;13.43;;;;;;;;;;5054812;28;20023;-59
2024/03/18 09:23:46;;;;;;;16.65;13.27;;;;;;;;;;5054472;28;20500;-59
2024/03/18 09:26:12;;;;;;;19.35;13.63;;;;;;;;;;5054795;28;20048;-59
2024/03/18 09:28:37;;;;;;;14.88;10.90;;;;;;;;;;5054600;28;20021;-59
2024/03/18 09:31:03;;;;;;;16.05;11.73;;;;;;;;;;5054725;28;20025;-58
2024/03/18 09:33:29;;;;;;;18.38;11.30;;;;;;;;;;5054504;28;20025;-58
2024/03/18 09:35:54;;;;;;;16.23;11.50;;;;;;;;;;5054316;28;20057;-56
2024/03/18 09:38:19;;;;;;;14.30;10.98;;;;;;;;;;5058162;28;20054;-58
2024/03/18 09:40:45;;;;;;;18.02;12.93;;;;;;;;;;5057339;28;20017;-55
2024/03/18 09:43:10;;;;;;;15.77;10.68;;;;;;;;;;5058312;28;20032;-58
2024/03/18 09:45:36;;;;;;;15.65;10.18;;;;;;;;;;5058185;28;20020;-58
2024/03/18 09:48:02;;;;;;;13.27;8.93;;;;;;;;;;5058171;28;20154;-58
2024/03/18 09:50:28;;;;;;;16.50;10.60;;;;;;;;;;5058288;28;20025;-56
2024/03/18 09:52:54;;;;;;;15.48;9.90;;;;;;;;;;5058179;28;20361;-55
2024/03/18 09:55:23;;;;;;;18.67;9.27;;;;;;;;;;5058241;28;20419;-56
2024/03/18 09:57:49;;;;;;;14.85;9.40;;;;;;;;;;5058375;28;20036;-58
2024/03/18 10:00:15;;;;;;;20.70;8.80;;;;;;;;;;5057853;28;20021;-55
2024/03/18 10:02:41;;;;;;;14.63;9.15;;;;;;;;;;5056696;28;20033;-59
2024/03/18 10:05:09;;;;;;;11.20;6.82;;;;;;;;;;5057530;28;20086;-59
2024/03/18 10:07:34;;;;;;;15.13;6.22;;;;;;;;;;5057877;28;20063;-59
2024/03/18 10:09:59;;;;;;;12.82;6.82;;;;;;;;;;5057705;28;20399;-59
2024/03/18 10:12:25;;;;;;;11.93;6.53;;;;;;;;;;5057568;28;20114;-53
2024/03/18 10:14:50;;;;;;;10.93;5.65;;;;;;;;;;5057507;28;20021;-53
2024/03/18 10:17:18;;;;;;;12.48;6.65;;;;;;;;;;5057764;28;20083;-53
2024/03/18 10:19:45;;;;;;;13.25;5.07;;;;;;;;;;5057497;28;20104;-54
2024/03/18 10:22:12;;;;;;;10.70;5.60;;;;;;;;;;5057491;28;20025;-58
2024/03/18 10:24:42;;;;;;;9.23;5.18;;;;;;;;;;5057358;28;20029;-55
2024/03/18 10:27:09;;;;;;;11.02;6.03;;;;;;;;;;5057621;28;20052;-54
2024/03/18 10:29:38;;;;;;;13.23;5.15;;;;;;;;;;5057867;28;20029;-55
2024/03/18 10:32:21;;;;;;;9.13;4.90;;;;;;;;;;5057251;28;20021;-55
2024/03/18 10:34:47;;;;;;;11.70;4.82;;;;;;;;;;5057330;28;20036;-56
2024/03/18 10:37:17;;;;;;;10.75;3.92;;;;;;;;;;5057074;28;20449;-57
2024/03/18 10:39:46;;;;;;;10.27;3.65;;;;;;;;;;5057359;28;20032;-53
2024/03/18 10:42:15;;;;;;;9.88;3.28;;;;;;;;;;5057060;28;20171;-53
2024/03/18 10:44:42;;;;;;;8.18;2.70;;;;;;;;;;5056365;28;20036;-54
2024/03/18 10:47:10;;;;;;;9.13;2.72;;;;;;;;;;5056783;28;20025;-58
2024/03/18 10:49:35;;;;;;;7.40;2.20;;;;;;;;;;5057144;28;20114;-53
2024/03/18 10:52:01;;;;;;;6.43;2.25;;;;;;;;;;5057199;28;20044;-54
2024/03/18 10:54:27;;;;;;;7.60;2.30;;;;;;;;;;5056801;28;20100;-55
2024/03/18 10:56:52;;;;;;;7.13;2.75;;;;;;;;;;5056866;28;20414;-54
2024/03/18 10:59:18;;;;;;;10.50;3.33;;;;;;;;;;5057051;28;20032;-55
2024/03/18 11:01:44;;;;;;;6.63;2.65;;;;;;;;;;5056198;28;20028;-55
2024/03/18 11:04:20;;;;;;;9.10;2.85;;;;;;;;;;5055756;28;20044;-54
2024/03/18 11:06:49;;;;;;;9.00;3.40;;;;;;;;;;5056583;28;20009;-55
2024/03/18 11:09:16;;;;;;;11.00;3.00;;;;;;;;;;5056665;28;20045;-58
2024/03/18 11:11:41;;;;;;;7.07;2.78;;;;;;;;;;5056585;28;20033;-55
2024/03/18 11:14:11;;;;;;;8.23;2.97;;;;;;;;;;5056404;28;20017;-54
2024/03/18 11:16:41;;;;;;;7.60;2.80;;;;;;;;;;5056303;28;20016;-55
2024/03/18 11:19:06;;;;;;;5.28;2.67;;;;;;;;;;5056346;28;20438;-54
2024/03/18 11:21:31;;;;;;;7.72;3.08;;;;;;;;;;5056652;28;20029;-58
2024/03/18 11:24:03;;;;;;;7.43;2.80;;;;;;;;;;5056192;28;20013;-58
2024/03/18 11:26:30;;;;;;;7.53;2.92;;;;;;;;;;5056519;28;20342;-55
2024/03/18 11:29:08;;;;;;;6.10;3.10;;;;;;;;;;5056082;28;20433;-56
2024/03/18 11:31:35;;;;;;;6.78;3.00;;;;;;;;;;5055913;28;20360;-56
2024/03/18 11:34:04;;;;;;;5.95;3.13;;;;;;;;;;5055947;28;20021;-56
2024/03/18 11:36:30;;;;;;;7.07;2.92;;;;;;;;;;5056032;28;20019;-57
2024/03/18 11:38:55;;;;;;;6.97;2.95;;;;;;;;;;5056390;28;20434;-58
2024/03/18 11:41:20;;;;;;;6.65;3.00;;;;;;;;;;5055962;28;20013;-56
2024/03/18 11:43:48;;;;;;;8.35;3.15;;;;;;;;;;5055951;28;20013;-56
2024/03/18 11:46:17;;;;;;;6.65;2.65;;;;;;;;;;5055818;28;20047;-58
2024/03/18 11:48:42;;;;;;;6.43;3.00;;;;;;;;;;5055865;28;20052;-56
2024/03/18 11:51:10;;;;;;;6.50;2.85;;;;;;;;;;5055540;28;20354;-58
2024/03/18 11:53:36;;;;;;;4.50;2.70;;;;;;;;;;5055647;28;20083;-57
2024/03/18 11:56:01;;;;;;;6.47;3.42;;;;;;;;;;5056382;28;20189;-56
2024/03/18 11:58:26;;;;;;;5.15;3.15;;;;;;;;;;5055983;28;20431;-58
2024/03/18 12:00:52;;;;;;;6.50;3.10;;;;;;;;;;5054969;28;20060;-57
2024/03/18 12:03:18;;;;;;;6.78;3.60;;;;;;;;;;5054243;28;20025;-56
2024/03/18 12:05:48;;;;;;;9.65;4.82;;;;;;;;;;5055548;28;20036;-55
2024/03/18 12:08:16;;;;;;;9.25;5.00;;;;;;;;;;5055486;28;20063;-55
2024/03/18 12:10:44;;;;;;;7.47;3.97;;;;;;;;;;5055416;28;20459;-56
2024/03/18 12:13:11;;;;;;;10.05;4.25;;;;;;;;;;5055767;28;20032;-54
2024/03/18 12:15:38;;;;;;;8.40;4.45;;;;;;;;;;5055385;28;20020;-54
2024/03/18 12:18:08;;;;;;;8.77;3.67;;;;;;;;;;5055829;28;20370;-58
2024/03/18 12:20:34;;;;;;;6.40;2.88;;;;;;;;;;5055619;28;20024;-57
2024/03/18 12:23:04;;;;;;;8.93;2.95;;;;;;;;;;5055917;28;20037;-57
2024/03/18 12:31:16;;;;;;;8.00;3.92;;;;;;;;;;5055537;28;20027;-56
2024/03/18 12:33:46;;;;;;;7.55;4.05;;;;;;;;;;5054647;28;20032;-58
2024/03/18 12:36:16;;;;;;;9.05;5.15;;;;;;;;;;5055254;28;20528;-57
2024/03/18 12:38:42;;;;;;;8.13;5.15;;;;;;;;;;5055530;28;20017;-57
2024/03/18 12:41:37;;;;;;;10.27;5.63;;;;;;;;;;5055504;28;20031;-57
2024/03/18 12:44:02;;;;;;;9.95;5.00;;;;;;;;;;5054356;28;20374;-57
2024/03/18 12:46:27;;;;;;;10.43;6.18;;;;;;;;;;5055236;28;20024;-58
2024/03/18 12:48:53;;;;;;;12.05;6.47;;;;;;;;;;5055743;28;20021;-58
2024/03/18 12:51:20;;;;;;;11.38;6.30;;;;;;;;;;5055543;28;20503;-59
2024/03/18 12:53:47;;;;;;;10.43;5.78;;;;;;;;;;5055422;28;20074;-58
2024/03/18 12:56:13;;;;;;;10.10;6.18;;;;;;;;;;5055519;28;20108;-58
2024/03/18 12:58:38;;;;;;;10.90;7.30;;;;;;;;;;5054086;28;20059;-58
2024/03/18 13:01:04;;;;;;;12.73;8.38;;;;;;;;;;5054099;28;20032;-58
2024/03/18 13:03:29;;;;;;;14.93;8.02;;;;;;;;;;5054923;28;20029;-57
2024/03/18 13:05:55;;;;;;;12.80;7.22;;;;;;;;;;5054854;28;20021;-56
2024/03/18 13:08:20;;;;;;;15.85;8.38;;;;;;;;;;5055084;28;20338;-57
2024/03/18 13:10:47;;;;;;;14.27;8.00;;;;;;;;;;5055704;28;20048;-57
2024/03/18 13:13:13;;;;;;;12.55;8.32;;;;;;;;;;5058821;28;20451;-57
2024/03/18 13:15:42;;;;;;;14.90;8.27;;;;;;;;;;5058935;28;20052;-56
2024/03/18 13:18:07;;;;;;;11.27;7.80;;;;;;;;;;5058680;28;20100;-57
2024/03/18 13:20:34;;;;;;;15.75;8.45;;;;;;;;;;5058702;28;20099;-54
2024/03/18 13:22:59;;;;;;;14.85;8.90;;;;;;;;;;5058630;28;20108;-57
2024/03/18 13:25:26;;;;;;;15.75;9.95;;;;;;;;;;5058821;28;20430;-58
2024/03/18 13:27:51;;;;;;;24.02;10.90;;;;;;;;;;5058457;28;20470;-57
2024/03/18 13:30:16;;;;;;;18.88;11.32;;;;;;;;;;5058456;28;20024;-57
2024/03/18 13:32:42;;;;;;;16.30;10.73;;;;;;;;;;5058758;28;20103;-58
2024/03/18 13:35:07;;;;;;;19.20;11.82;;;;;;;;;;5058832;28;20028;-57
2024/03/18 13:37:35;;;;;;;17.50;11.15;;;;;;;;;;5058672;28;20028;-57
2024/03/18 13:40:00;;;;;;;17.98;11.73;;;;;;;;;;5058749;28;20024;-58
2024/03/18 13:42:25;;;;;;;20.20;12.15;;;;;;;;;;5058428;28;20032;-58
2024/03/18 13:44:51;;;;;;;20.92;12.85;;;;;;;;;;5058730;28;20108;-58
2024/03/18 13:47:16;;;;;;;20.23;13.40;;;;;;;;;;5058811;28;20044;-58
2024/03/18 13:49:42;;;;;;;18.70;12.18;;;;;;;;;;5058929;28;20028;-58
2024/03/18 13:52:08;;;;;;;17.35;10.15;;;;;;;;;;5059979;28;20044;-56
2024/03/18 13:54:33;;;;;;;19.58;12.32;;;;;;;;;;5058458;28;20053;-56
2024/03/18 13:57:00;;;;;;;16.58;11.20;;;;;;;;;;5059026;28;20045;-58
2024/03/18 13:59:27;;;;;;;18.60;12.27;;;;;;;;;;5058146;28;20021;-59
2024/03/18 14:01:52;;;;;;;19.42;10.80;;;;;;;;;;5057074;28;20409;-58
2024/03/18 14:04:18;;;;;;;17.30;10.10;;;;;;;;;;5057903;28;20021;-58
2024/03/18 14:06:45;;;;;;;19.90;10.00;;;;;;;;;;5057653;28;20083;-58
2024/03/18 14:09:13;;;;;;;15.25;8.82;;;;;;;;;;5058096;28;20017;-59
2024/03/18 14:11:39;;;;;;;13.15;8.55;;;;;;;;;;5058053;28;20021;-59
2024/03/18 14:14:05;;;;;;;13.52;8.05;;;;;;;;;;5057788;28;20426;-58
2024/03/18 14:16:32;;;;;;;12.50;7.60;;;;;;;;;;5057931;28;20396;-59
2024/03/18 14:18:58;;;;;;;13.52;7.03;;;;;;;;;;5057571;28;20018;-59
2024/03/18 14:21:25;;;;;;;13.45;8.15;;;;;;;;;;5057552;28;20353;-58
2024/03/18 14:23:51;;;;;;;13.68;7.95;;;;;;;;;;5056697;28;20032;-58
2024/03/18 14:26:17;;;;;;;18.05;7.07;;;;;;;;;;5057512;28;20025;-58